Terminal Aerodrome Forecast
Issued by NWS Mt. Holly, NJ

Home | Current Version | Previous Version | Text Only | Print | Product List | Glossary On
Versions: 1 2 3 4 5 6 7 8 9 10 11 12 13 14 15 16 17 18 19 20 21 22
000
FTUS41 KPHI 272300
TAFPHL
TAF
KPHL 272327Z 2800/2906 20004KT P6SM BKN250
     FM280600 22004KT P6SM BKN100
     FM281100 25004KT 6SM -SHRA SCT025 BKN050
     FM281700 30008KT 6SM -SHRA BKN025
     FM282300 31006KT P6SM BKN050 OVC100=

USA.gov is the U.S. government's official web portal to all federal, state and local government web resources and services.